DLH9880 EDDF-LETL
Flight info
| Callsign | DLH9880 |
|---|---|
| Flight time | N/A |
| Altitude | 41000 |
| Route | ANEKI3D/07C ANEKI Y163 HERBI Y164 MOPAN DCT LUTIX DCT BENOT DCT NEMOS DCT NINTU DCT MEBAK DCT REPSI DCT LERGA DCT MINSO DCT NARAK DCT AGN DCT MAQAB DCT TIVLI N869 EXEMU M176 DISVU N975 ADUXO N869 NUSGO DCT LETL/18 |
| Aircraft | 346/H-V/N |
Departure
| Time | 2026-04-14 16:57 |
|---|---|
| Airport | Frankfurt Main Airport (EDDF) |
Arrival
| Time | N/A |
|---|---|
| Airport | Teruel Airport (LETL) |
| Time | Latitude | Longitude | Altitude | Speed | Heading |
|---|---|---|---|---|---|
| 2026-04-14 16:25 | 50.03705 | 8.52651 | 388 ft | 0 kts | 343° |
| 2026-04-14 16:39 | 50.03683 | 8.52662 | 381 ft | 4 kts | 338° |
| 2026-04-14 16:39 | 50.03658 | 8.52679 | 382 ft | 4 kts | 338° |
| 2026-04-14 16:39 | 50.03637 | 8.52690 | 383 ft | 4 kts | 354° |
| 2026-04-14 16:39 | 50.03620 | 8.52687 | 384 ft | 4 kts | 31° |
| 2026-04-14 16:40 | 50.03606 | 8.52663 | 385 ft | 4 kts | 63° |
| 2026-04-14 16:40 | 50.03596 | 8.52625 | 386 ft | 4 kts | 71° |
| 2026-04-14 16:40 | 50.03592 | 8.52604 | 386 ft | 1 kts | 71° |
| 2026-04-14 16:40 | 50.03591 | 8.52602 | 387 ft | 0 kts | 71° |
| 2026-04-14 16:46 | 50.03600 | 8.52640 | 386 ft | 6 kts | 71° |
| 2026-04-14 16:46 | 50.03612 | 8.52692 | 384 ft | 5 kts | 70° |
| 2026-04-14 16:46 | 50.03628 | 8.52772 | 382 ft | 9 kts | 79° |
| 2026-04-14 16:47 | 50.03614 | 8.52845 | 386 ft | 8 kts | 135° |
| 2026-04-14 16:47 | 50.03594 | 8.52924 | 383 ft | 9 kts | 92° |
| 2026-04-14 16:47 | 50.03608 | 8.53062 | 376 ft | 17 kts | 71° |
| 2026-04-14 16:47 | 50.03631 | 8.53155 | 369 ft | 0 kts | 69° |
| 2026-04-14 16:48 | 50.03636 | 8.53174 | 372 ft | 4 kts | 70° |
| 2026-04-14 16:48 | 50.03650 | 8.53237 | 379 ft | 8 kts | 70° |
| 2026-04-14 16:48 | 50.03671 | 8.53330 | 371 ft | 8 kts | 71° |
| 2026-04-14 16:48 | 50.03691 | 8.53412 | 371 ft | 4 kts | 70° |
| 2026-04-14 16:49 | 50.03703 | 8.53473 | 368 ft | 8 kts | 81° |
| 2026-04-14 16:49 | 50.03685 | 8.53543 | 371 ft | 6 kts | 139° |
| 2026-04-14 16:49 | 50.03651 | 8.53560 | 370 ft | 5 kts | 182° |
| 2026-04-14 16:49 | 50.03614 | 8.53547 | 375 ft | 6 kts | 202° |
| 2026-04-14 16:50 | 50.03583 | 8.53529 | 375 ft | 5 kts | 200° |
| 2026-04-14 16:50 | 50.03542 | 8.53506 | 377 ft | 8 kts | 200° |
| 2026-04-14 16:50 | 50.03497 | 8.53521 | 379 ft | 7 kts | 121° |
| 2026-04-14 16:50 | 50.03492 | 8.53605 | 381 ft | 9 kts | 80° |
| 2026-04-14 16:51 | 50.03515 | 8.53715 | 380 ft | 11 kts | 69° |
| 2026-04-14 16:51 | 50.03533 | 8.53790 | 381 ft | 4 kts | 70° |
| 2026-04-14 16:51 | 50.03547 | 8.53850 | 379 ft | 8 kts | 70° |
| 2026-04-14 16:51 | 50.03568 | 8.53937 | 381 ft | 9 kts | 69° |
| 2026-04-14 16:52 | 50.03585 | 8.54006 | 381 ft | 4 kts | 69° |
| 2026-04-14 16:52 | 50.03599 | 8.54064 | 379 ft | 8 kts | 69° |
| 2026-04-14 16:52 | 50.03621 | 8.54157 | 380 ft | 10 kts | 69° |
| 2026-04-14 16:52 | 50.03639 | 8.54229 | 380 ft | 6 kts | 69° |
| 2026-04-14 16:53 | 50.03644 | 8.54249 | 380 ft | 0 kts | 70° |
| 2026-04-14 16:53 | 50.03644 | 8.54257 | 380 ft | 3 kts | 92° |
| 2026-04-14 16:53 | 50.03609 | 8.54307 | 383 ft | 7 kts | 153° |
| 2026-04-14 16:53 | 50.03530 | 8.54363 | 383 ft | 12 kts | 150° |
| 2026-04-14 16:54 | 50.03503 | 8.54448 | 381 ft | 5 kts | 83° |
| 2026-04-14 16:54 | 50.03505 | 8.54462 | 381 ft | 0 kts | 74° |
| 2026-04-14 16:55 | 50.03505 | 8.54463 | 381 ft | 0 kts | 74° |
| 2026-04-14 16:57 | 50.03576 | 8.54780 | 376 ft | 82 kts | 69° |
| 2026-04-14 16:57 | 50.03893 | 8.56110 | 398 ft | 170 kts | 65° |
| 2026-04-14 16:57 | 50.04333 | 8.57920 | 1286 ft | 186 kts | 67° |
| 2026-04-14 16:57 | 50.04766 | 8.59880 | 2486 ft | 196 kts | 69° |
| 2026-04-14 16:58 | 50.05210 | 8.62015 | 3482 ft | 218 kts | 69° |
| 2026-04-14 16:58 | 50.05692 | 8.64314 | 4411 ft | 225 kts | 69° |
| 2026-04-14 16:58 | 50.06182 | 8.66642 | 5389 ft | 228 kts | 69° |
| 2026-04-14 16:58 | 50.06685 | 8.69018 | 6371 ft | 234 kts | 69° |
| 2026-04-14 16:59 | 50.07175 | 8.71473 | 7306 ft | 241 kts | 78° |
| 2026-04-14 16:59 | 50.07050 | 8.74110 | 8230 ft | 248 kts | 112° |
| 2026-04-14 16:59 | 50.06041 | 8.76276 | 9188 ft | 251 kts | 146° |
| 2026-04-14 16:59 | 50.04446 | 8.77294 | 10221 ft | 249 kts | 177° |